Time;durP1;ratioP1;P1;durP2;ratioP2;P2;SDS_P1;SDS_P2;PMS_P1;PMS_P2;Temp;Humidity;BMP_temperature;BMP_pressure;BME280_temperature;BME280_humidity;BME280_pressure;Samples;Min_cycle;Max_cycle;Signal;HPM_P1;HPM_P2
2021/08/12 00:01:33;;;;;;;;;11.00;9.33;;;;;22.08;56.69;101598.28;5058586;28;45489;-87
2021/08/12 00:03:59;;;;;;;;;11.00;10.33;;;;;22.03;56.85;101589.44;5062317;28;45372;-90
2021/08/12 00:06:24;;;;;;;;;11.00;10.00;;;;;22.00;56.43;101579.66;5064794;28;45370;-89
2021/08/12 00:08:51;;;;;;;;;12.00;11.00;;;;;22.08;56.51;101601.81;5062862;28;45418;-91
2021/08/12 00:11:16;;;;;;;;;13.00;11.00;;;;;22.08;56.75;101601.81;5060560;28;45390;-91
2021/08/12 00:13:42;;;;;;;;;10.67;9.33;;;;;22.10;56.36;101596.47;5059050;28;45465;-88
2021/08/12 00:16:07;;;;;;;;;10.00;9.00;;;;;21.97;56.43;101572.59;5060340;28;45347;-89
2021/08/12 00:18:33;;;;;;;;;11.00;9.67;;;;;22.06;56.31;101592.94;5063205;28;45265;-89
2021/08/12 00:20:58;;;;;;;;;11.00;9.00;;;;;22.06;56.87;101609.00;5062905;28;45392;-88
2021/08/12 00:23:26;;;;;;;;;11.33;9.67;;;;;21.99;56.50;101593.97;5062219;28;46194;-89
2021/08/12 00:25:53;;;;;;;;;10.33;9.33;;;;;21.99;56.19;101591.28;5059070;28;45300;-91
2021/08/12 00:28:19;;;;;;;;;9.67;9.67;;;;;22.01;56.47;101596.63;5058588;28;45230;-90
2021/08/12 00:30:44;;;;;;;;;12.00;10.00;;;;;21.96;56.58;101589.53;5058211;28;45572;-89
2021/08/12 00:33:09;;;;;;;;;11.67;10.00;;;;;21.93;56.45;101588.72;5057624;28;45412;-88
2021/08/12 00:35:35;;;;;;;;;11.67;11.00;;;;;21.96;56.71;101596.69;5057878;28;45436;-89
2021/08/12 00:38:00;;;;;;;;;10.33;10.00;;;;;21.88;56.55;101577.19;5058008;28;45543;-88
2021/08/12 00:40:29;;;;;;;;;12.00;10.00;;;;;21.85;56.43;101578.13;5056871;28;45319;-89
2021/08/12 00:42:54;;;;;;;;;12.33;12.33;;;;;21.91;56.52;101588.75;5056439;28;47546;-89
2021/08/12 00:45:20;;;;;;;;;12.33;10.00;;;;;21.86;56.56;101580.78;5056879;28;45410;-90
2021/08/12 00:47:45;;;;;;;;;10.33;9.67;;;;;21.86;56.73;101583.47;5057248;28;45350;-89
2021/08/12 00:50:11;;;;;;;;;10.00;10.00;;;;;21.85;56.73;101584.38;5058615;28;45378;-89
2021/08/12 00:52:37;;;;;;;;;12.67;11.33;;;;;21.87;56.92;101584.38;5058376;28;46108;-91
2021/08/12 00:55:04;;;;;;;;;15.00;13.00;;;;;21.81;56.90;101571.91;5056488;28;45399;-90
2021/08/12 00:57:29;;;;;;;;;13.67;11.67;;;;;21.80;57.19;101564.81;5058231;28;45359;-91
2021/08/12 00:59:55;;;;;;;;;14.67;12.67;;;;;21.82;57.11;101573.69;5057316;28;45365;-89
2021/08/12 01:02:20;;;;;;;;;10.67;10.67;;;;;21.81;57.65;101569.22;5058275;28;46323;-90
2021/08/12 01:04:50;;;;;;;;;11.67;10.67;;;;;21.81;57.47;101566.56;5058695;28;45366;-89
2021/08/12 01:07:28;;;;;;;;;14.00;12.00;;;;;21.70;57.67;101552.50;5059533;28;45275;-91
2021/08/12 01:09:53;;;;;;;;;13.33;10.00;;;;;21.78;57.79;101569.31;5058010;28;45259;-92
2021/08/12 01:12:40;;;;;;;;;16.33;13.33;;;;;21.75;57.94;101567.56;5058143;28;45437;-89
2021/08/12 01:15:08;;;;;;;;;11.67;10.33;;;;;21.74;57.71;101576.47;5058286;28;45536;-90
2021/08/12 01:17:46;;;;;;;;;11.33;11.00;;;;;21.70;58.50;101573.91;5057753;28;45413;-89
2021/08/12 01:20:41;;;;;;;;;11.00;11.00;;;;;21.72;58.76;101580.09;5059441;28;45495;-89
2021/08/12 01:23:12;;;;;;;;;14.33;11.33;;;;;21.70;58.87;101574.75;5063803;28;46282;-89
2021/08/12 01:25:40;;;;;;;;;13.00;11.00;;;;;21.69;58.80;101583.72;5062857;28;45460;-88
2021/08/12 01:28:21;;;;;;;;;12.00;11.33;;;;;21.58;58.80;101558.91;5074528;28;45239;-88
2021/08/12 01:31:05;;;;;;;;;12.67;11.00;;;;;21.70;59.11;101584.59;5072634;28;45458;-87
2021/08/12 01:34:08;;;;;;;;;11.67;10.67;;;;;21.68;59.24;101573.03;5075289;28;48179;-87
2021/08/12 01:36:36;;;;;;;;;14.67;14.67;;;;;21.69;59.02;101582.81;5065376;28;44661;-87
2021/08/12 01:39:06;;;;;;;;;12.67;11.33;;;;;21.69;59.18;101586.38;5069003;28;45318;-86
2021/08/12 01:41:32;;;;;;;;;13.67;12.33;;;;;21.68;59.12;101584.59;5074090;28;45337;-87
2021/08/12 01:44:00;;;;;;;;;12.00;12.00;;;;;21.64;59.14;101578.41;5070698;28;47532;-86
2021/08/12 01:46:27;;;;;;;;;17.33;14.00;;;;;21.65;59.62;101587.34;5062700;28;45385;-89
2021/08/12 01:48:54;;;;;;;;;17.33;13.67;;;;;21.64;59.78;101591.81;5060934;28;45277;-88
2021/08/12 01:51:22;;;;;;;;;13.00;12.00;;;;;21.60;59.57;101587.41;5061337;28;45406;-88
2021/08/12 01:53:50;;;;;;;;;14.00;11.67;;;;;21.61;59.64;101589.19;5066344;28;47319;-88
2021/08/12 01:56:17;;;;;;;;;13.00;12.67;;;;;21.55;59.68;101578.59;5066887;28;45256;-87
2021/08/12 01:58:43;;;;;;;;;14.33;13.00;;;;;21.56;59.89;101585.69;5060267;28;45309;-87
2021/08/12 02:01:09;;;;;;;;;14.00;11.00;;;;;21.54;59.78;101578.59;5062550;28;45370;-88
2021/08/12 02:03:35;;;;;;;;;17.67;15.00;;;;;21.46;59.48;101573.34;5065572;28;46263;-88
2021/08/12 02:06:03;;;;;;;;;15.67;14.67;;;;;21.44;60.04;101575.19;5061530;28;45318;-89
2021/08/12 02:08:30;;;;;;;;;14.00;12.67;;;;;21.46;60.06;101586.72;5060127;28;45355;-91
2021/08/12 02:10:55;;;;;;;;;13.00;12.67;;;;;21.40;60.47;101579.69;5060145;28;45382;-89
2021/08/12 02:13:24;;;;;;;;;13.67;12.00;;;;;21.39;60.05;101576.13;5083520;28;45460;-87
2021/08/12 02:15:50;;;;;;;;;16.67;14.00;;;;;21.35;60.27;101577.06;5068013;28;45316;-90
2021/08/12 02:18:15;;;;;;;;;12.67;12.67;;;;;21.32;60.28;101574.44;5058447;28;45300;-90
2021/08/12 02:20:41;;;;;;;;;13.67;13.67;;;;;21.20;60.61;101558.56;5059835;28;45493;-92
2021/08/12 02:23:14;;;;;;;;;15.67;14.00;;;;;21.28;60.26;101572.72;5060013;28;46446;-89
2021/08/12 02:25:59;;;;;;;;;17.67;13.33;;;;;21.17;60.57;101554.16;5061171;28;45282;-90
2021/08/12 02:28:28;;;;;;;;;14.00;12.33;;;;;21.17;60.64;101565.72;5062177;28;45433;-89
2021/08/12 02:30:55;;;;;;;;;14.67;14.33;;;;;21.20;60.71;101569.25;5068812;28;45216;-89
2021/08/12 02:33:25;;;;;;;;;15.67;13.67;;;;;21.11;60.79;101559.59;5073846;28;45326;-88
2021/08/12 02:35:51;;;;;;;;;15.33;15.00;;;;;21.09;60.75;101575.63;5073694;28;45248;-90
2021/08/12 02:38:18;;;;;;;;;13.00;13.00;;;;;21.08;61.13;101571.22;5063184;28;45471;-89
2021/08/12 02:40:45;;;;;;;;;16.33;11.33;;;;;21.06;61.16;101575.69;5063514;28;45240;-89
2021/08/12 02:43:12;;;;;;;;;15.67;13.00;;;;;21.01;61.14;101573.06;5059547;28;46266;-90
2021/08/12 02:45:38;;;;;;;;;15.00;12.33;;;;;20.98;61.09;101572.25;5058118;28;45383;-90
2021/08/12 02:48:08;;;;;;;;;12.67;11.00;;;;;21.04;61.01;101582.84;5059351;28;45298;-90
2021/08/12 02:50:37;;;;;;;;;11.33;11.33;;;;;20.99;61.06;101576.66;5059579;28;45319;-89
2021/08/12 02:53:03;;;;;;;;;14.33;13.67;;;;;21.03;61.48;101579.28;5059408;28;45326;-91
2021/08/12 02:55:30;;;;;;;;;16.67;13.67;;;;;21.00;61.09;101583.78;5059291;28;45464;-91
2021/08/12 02:57:57;;;;;;;;;15.67;14.00;;;;;20.98;61.00;101585.59;5059062;28;45276;-91
2021/08/12 03:00:23;;;;;;;;;16.00;12.67;;;;;20.88;61.07;101572.31;5059394;28;45323;-90
2021/08/12 03:02:50;;;;;;;;;14.00;13.33;;;;;20.83;60.71;101569.69;5067473;28;45292;-90
2021/08/12 03:05:16;;;;;;;;;14.00;13.00;;;;;20.81;61.26;101568.81;5071919;28;45182;-89
2021/08/12 03:07:47;;;;;;;;;14.00;13.33;;;;;20.81;61.49;101567.97;5072048;28;44764;-87
2021/08/12 03:10:18;;;;;;;;;14.67;13.33;;;;;20.82;60.89;101575.94;5063029;28;45249;-90
2021/08/12 03:12:46;;;;;;;;;15.00;12.00;;;;;20.79;61.36;101567.09;5058967;28;45547;-89
2021/08/12 03:15:12;;;;;;;;;15.33;12.33;;;;;20.77;61.60;101567.09;5058840;28;45382;-91
2021/08/12 03:17:38;;;;;;;;;13.00;13.00;;;;;20.76;61.37;101560.00;5058877;28;45291;-90
2021/08/12 03:20:06;;;;;;;;;15.00;12.00;;;;;20.71;61.63;101562.72;5058472;28;45236;-89
2021/08/12 03:22:32;;;;;;;;;11.00;11.00;;;;;20.69;61.80;101559.19;5057389;28;48180;-88
2021/08/12 03:24:57;;;;;;;;;14.67;12.00;;;;;20.74;61.75;101563.59;5058427;28;45598;-91
2021/08/12 03:27:23;;;;;;;;;13.33;11.00;;;;;20.73;61.56;101575.19;5058558;28;45477;-88
2021/08/12 03:29:50;;;;;;;;;15.33;13.00;;;;;20.66;61.71;101563.69;5058954;28;45362;-90
2021/08/12 03:32:16;;;;;;;;;13.67;12.67;;;;;20.64;61.79;101568.16;5058419;28;45360;-87
2021/08/12 03:34:42;;;;;;;;;12.00;10.67;;;;;20.61;61.81;101561.06;5058491;28;45302;-90
2021/08/12 03:37:08;;;;;;;;;14.00;12.00;;;;;20.65;61.79;101568.13;5058544;28;45176;-90
2021/08/12 03:39:34;;;;;;;;;12.00;12.00;;;;;20.66;61.82;101575.25;5058843;28;45498;-89
2021/08/12 03:41:59;;;;;;;;;13.67;12.00;;;;;20.64;61.78;101574.41;5058597;28;46063;-88
2021/08/12 03:44:25;;;;;;;;;13.33;12.33;;;;;20.59;61.88;101562.88;5057480;28;45444;-90
2021/08/12 03:46:51;;;;;;;;;13.67;10.67;;;;;20.50;61.83;101552.28;5058440;28;45347;-90
2021/08/12 03:49:17;;;;;;;;;17.67;12.67;;;;;20.52;61.99;101561.19;5058555;28;45302;-90
2021/08/12 03:51:42;;;;;;;;;12.00;11.00;;;;;20.55;62.16;101553.13;5058123;28;46009;-92
2021/08/12 03:54:08;;;;;;;;;11.33;11.33;;;;;20.54;61.95;101557.56;5058084;28;45378;-91
2021/08/12 03:56:33;;;;;;;;;14.33;11.67;;;;;20.48;62.03;101558.53;5058380;28;45441;-87
2021/08/12 03:58:59;;;;;;;;;16.00;14.00;;;;;20.46;62.03;101552.31;5058611;28;45288;-87
2021/08/12 04:01:27;;;;;;;;;13.67;11.00;;;;;20.45;62.03;101553.22;5056680;28;48421;-88
2021/08/12 04:03:52;;;;;;;;;13.67;11.33;;;;;20.47;62.04;101559.41;5056753;28;45231;-90
2021/08/12 04:06:17;;;;;;;;;14.33;12.00;;;;;20.45;62.28;101552.34;5058105;28;45350;-90
2021/08/12 04:08:43;;;;;;;;;13.00;12.33;;;;;20.40;62.12;101549.72;5058309;28;45386;-89
2021/08/12 04:11:09;;;;;;;;;16.33;13.33;;;;;20.37;62.35;101544.41;5057990;28;45306;-89
2021/08/12 04:13:34;;;;;;;;;10.67;9.33;;;;;20.40;62.41;101548.81;5056752;28;45317;-89
2021/08/12 04:16:00;;;;;;;;;13.33;12.00;;;;;20.38;62.15;101547.97;5058382;28;45311;-91
2021/08/12 04:18:25;;;;;;;;;15.33;11.33;;;;;20.29;62.44;101533.81;5056779;28;45451;-90
2021/08/12 04:20:51;;;;;;;;;11.33;10.67;;;;;20.32;62.32;101539.13;5057280;28;45600;-90
2021/08/12 04:23:17;;;;;;;;;12.67;11.00;;;;;20.33;62.35;101548.00;5056612;28;45385;-89
2021/08/12 04:25:42;;;;;;;;;10.00;9.67;;;;;20.27;62.20;101535.59;5057815;28;45334;-89
2021/08/12 04:28:07;;;;;;;;;17.00;12.33;;;;;20.29;62.46;101544.47;5058183;28;45852;-90
2021/08/12 04:30:33;;;;;;;;;14.00;12.00;;;;;20.27;62.61;101540.94;5057981;28;45438;-91
2021/08/12 04:33:00;;;;;;;;;11.00;10.00;;;;;20.25;62.54;101542.75;5057031;28;46089;-92
2021/08/12 04:35:25;;;;;;;;;14.33;11.67;;;;;20.24;62.58;101538.31;5058762;28;45340;-88
2021/08/12 04:37:51;;;;;;;;;15.00;12.33;;;;;20.15;62.16;101531.28;5059388;28;45468;-91
2021/08/12 04:40:18;;;;;;;;;9.67;9.67;;;;;20.12;62.39;101517.97;5060349;28;45494;-90
2021/08/12 04:42:47;;;;;;;;;12.67;8.33;;;;;20.13;62.27;101520.63;5060196;28;45362;-88
2021/08/12 04:45:12;;;;;;;;;14.00;10.33;;;;;20.08;62.07;101514.44;5059522;28;45500;-90
2021/08/12 04:47:38;;;;;;;;;13.33;9.67;;;;;20.12;62.08;101520.63;5059064;28;45335;-91
2021/08/12 04:50:05;;;;;;;;;12.00;12.00;;;;;20.19;62.01;101538.38;5059051;28;46220;-90
2021/08/12 04:52:30;;;;;;;;;10.33;10.33;;;;;20.19;61.82;101535.69;5059210;28;45341;-91
2021/08/12 04:54:55;;;;;;;;;12.33;11.67;;;;;20.11;62.03;101527.78;5057160;28;45346;-91
2021/08/12 04:57:21;;;;;;;;;10.67;10.00;;;;;20.17;62.19;101540.16;5058170;28;45592;-91
2021/08/12 04:59:46;;;;;;;;;10.00;10.00;;;;;20.11;62.05;101529.56;5059102;28;45938;-90
2021/08/12 05:02:12;;;;;;;;;11.00;9.00;;;;;20.18;62.05;101543.72;5058557;28;45423;-90
2021/08/12 05:04:37;;;;;;;;;12.67;11.67;;;;;20.18;62.10;101536.59;5058803;28;45431;-91
2021/08/12 05:07:03;;;;;;;;;11.00;11.00;;;;;20.16;61.93;101532.19;5062143;28;45178;-86
2021/08/12 05:09:28;;;;;;;;;13.67;11.00;;;;;20.19;62.22;101535.69;5076189;28;46164;-88
2021/08/12 05:11:54;;;;;;;;;12.00;10.67;;;;;20.18;61.77;101531.25;5067363;28;44633;-91
2021/08/12 05:14:19;;;;;;;;;12.67;12.00;;;;;20.22;61.82;101535.66;5061202;28;45220;-86
2021/08/12 05:16:44;;;;;;;;;16.33;11.33;;;;;20.20;62.08;101532.09;5055508;28;45426;-81
2021/08/12 05:19:10;;;;;;;;;15.00;13.33;;;;;20.23;61.93;101540.09;5055899;28;46323;-79
2021/08/12 05:21:35;;;;;;;;;11.00;10.00;;;;;20.25;62.10;101532.06;5055852;28;45436;-79
2021/08/12 05:24:01;;;;;;;;;11.33;9.67;;;;;20.27;62.44;101540.06;5056192;28;45439;-79
2021/08/12 05:26:26;;;;;;;;;15.33;12.67;;;;;20.25;61.76;101532.97;5056249;28;45413;-78
2021/08/12 05:28:52;;;;;;;;;17.00;12.33;;;;;20.27;62.15;101545.41;5055685;28;45938;-79
2021/08/12 05:31:17;;;;;;;;;13.33;11.00;;;;;20.27;62.25;101543.63;5055892;28;45413;-80
2021/08/12 05:33:42;;;;;;;;;12.33;12.33;;;;;20.30;62.54;101550.72;5055774;28;45764;-82
2021/08/12 05:36:08;;;;;;;;;16.33;12.00;;;;;20.31;62.24;101547.13;5056020;28;45523;-80
2021/08/12 05:38:34;;;;;;;;;17.67;12.00;;;;;20.32;62.01;101555.16;5055788;28;46555;-79
2021/08/12 05:40:59;;;;;;;;;14.00;13.33;;;;;20.31;62.02;101549.81;5055641;28;45276;-80
2021/08/12 05:43:26;;;;;;;;;14.00;12.33;;;;;20.32;62.17;101551.59;5055526;28;45520;-81
2021/08/12 05:45:52;;;;;;;;;12.33;10.67;;;;;20.33;62.30;101550.66;5055632;28;45323;-79
2021/08/12 05:48:19;;;;;;;;;16.00;11.00;;;;;20.34;61.89;101552.47;5055367;28;46174;-79
2021/08/12 05:50:45;;;;;;;;;15.33;13.00;;;;;20.34;62.32;101544.44;5055333;28;45456;-79
2021/08/12 05:53:18;;;;;;;;;11.67;10.33;;;;;20.34;62.48;101541.78;5055554;28;45326;-79
2021/08/12 05:55:43;;;;;;;;;12.33;9.00;;;;;;;;5056106;28;45412;-79
2021/08/12 05:58:09;;;;;;;;;14.00;12.00;;;;;20.39;62.45;101544.41;5055111;28;46515;-79
2021/08/12 06:00:34;;;;;;;;;11.00;11.00;;;;;20.39;62.65;101550.59;5055483;28;45346;-79
2021/08/12 06:03:06;;;;;;;;;16.33;13.00;;;;;20.42;62.52;101550.59;5055550;28;45486;-78
2021/08/12 06:05:33;;;;;;;;;12.67;12.33;;;;;20.45;62.17;101550.53;5055977;28;45302;-78
2021/08/12 06:08:04;;;;;;;;;12.00;10.00;;;;;20.47;62.35;101553.22;5057934;28;45338;-79
2021/08/12 06:10:30;;;;;;;;;14.67;12.67;;;;;20.50;61.99;101552.28;5058884;28;45370;-78
2021/08/12 06:12:56;;;;;;;;;13.67;13.33;;;;;20.54;62.10;101548.69;5058777;28;45363;-79
2021/08/12 06:15:23;;;;;;;;;13.67;12.00;;;;;20.55;62.22;101558.47;5058896;28;45290;-78
2021/08/12 06:17:48;;;;;;;;;13.00;10.67;;;;;20.58;62.38;101563.78;5058692;28;46277;-79
2021/08/12 06:20:14;;;;;;;;;12.00;11.67;;;;;20.59;61.97;101557.53;5058345;28;45396;-80
2021/08/12 06:22:40;;;;;;;;;11.33;11.33;;;;;20.59;61.99;101555.75;5059246;28;45460;-87
2021/08/12 06:25:05;;;;;;;;;14.00;13.67;;;;;20.59;61.67;101552.19;5059495;28;45417;-88
2021/08/12 06:27:31;;;;;;;;;13.67;11.33;;;;;20.55;61.46;101547.78;5059712;28;45460;-89
2021/08/12 06:29:56;;;;;;;;;15.00;11.67;;;;;20.60;61.49;101561.97;5059320;28;45338;-86
2021/08/12 06:32:22;;;;;;;;;13.67;12.00;;;;;20.60;61.90;101561.97;5059801;28;45280;-87
2021/08/12 06:34:48;;;;;;;;;13.67;11.33;;;;;20.55;62.26;101546.00;5060265;28;45488;-85
2021/08/12 06:37:13;;;;;;;;;19.00;16.00;;;;;20.65;61.89;101564.56;5059449;28;45522;-86
2021/08/12 06:39:39;;;;;;;;;12.00;12.00;;;;;20.63;61.87;101558.38;5059484;28;45460;-87
2021/08/12 06:42:04;;;;;;;;;15.67;12.67;;;;;20.66;62.18;101559.22;5065656;28;45303;-87
2021/08/12 06:44:30;;;;;;;;;12.33;10.33;;;;;20.74;62.07;101571.59;5063884;28;45423;-85
2021/08/12 06:46:55;;;;;;;;;17.00;14.00;;;;;20.71;61.95;101562.72;5061198;28;45382;-84
2021/08/12 06:49:21;;;;;;;;;16.33;15.00;;;;;20.75;61.53;101570.72;5060909;28;45438;-84
2021/08/12 06:51:46;;;;;;;;;17.33;15.33;;;;;20.82;61.57;101572.38;5062425;28;45326;-85
2021/08/12 06:54:11;;;;;;;;;21.67;15.00;;;;;20.85;61.66;101579.50;5061886;28;45374;-85
2021/08/12 06:56:38;;;;;;;;;16.00;16.00;;;;;20.88;61.21;101574.09;5059157;28;45412;-89
2021/08/12 06:59:03;;;;;;;;;13.33;10.67;;;;;20.88;61.54;101577.66;5058506;28;45422;-87
2021/08/12 07:01:29;;;;;;;;;14.33;12.00;;;;;20.82;61.17;101561.69;5058557;28;45690;-84
2021/08/12 07:03:55;;;;;;;;;10.00;10.00;;;;;20.86;60.90;101559.88;5058671;28;45290;-85
2021/08/12 07:06:20;;;;;;;;;19.00;13.67;;;;;20.93;61.13;101570.47;5058115;28;46652;-85
2021/08/12 07:08:46;;;;;;;;;15.67;14.33;;;;;20.96;61.46;101571.34;5058230;28;45422;-84
2021/08/12 07:11:11;;;;;;;;;10.00;10.00;;;;;21.00;60.97;101567.75;5058506;28;45276;-84
2021/08/12 07:13:36;;;;;;;;;18.00;14.33;;;;;21.01;60.90;101559.72;5058559;28;45306;-87
2021/08/12 07:16:02;;;;;;;;;17.33;14.00;;;;;21.02;60.94;101555.25;5058032;28;46528;-87
2021/08/12 07:18:27;;;;;;;;;13.00;11.00;;;;;21.08;61.49;101560.53;5057712;28;45270;-87
2021/08/12 07:20:53;;;;;;;;;16.33;14.67;;;;;21.06;61.22;101557.00;5058409;28;45439;-87
2021/08/12 07:23:18;;;;;;;;;17.33;12.33;;;;;21.12;61.19;101564.91;5058114;28;45319;-84
2021/08/12 07:25:43;;;;;;;;;17.33;14.33;;;;;21.10;61.49;101550.69;5066888;28;46103;-84
2021/08/12 07:28:12;;;;;;;;;17.00;13.00;;;;;21.16;60.72;101566.66;5066883;28;45489;-85
2021/08/12 07:30:37;;;;;;;;;15.67;14.67;;;;;21.16;60.68;101561.28;5064956;28;45507;-87
2021/08/12 07:33:03;;;;;;;;;15.67;13.00;;;;;21.19;60.83;101562.16;5059452;28;45286;-86
2021/08/12 07:35:28;;;;;;;;;15.00;13.67;;;;;21.19;60.93;101559.50;5058253;28;46507;-87
2021/08/12 07:37:54;;;;;;;;;15.00;14.00;;;;;21.21;60.69;101557.69;5058202;28;45283;-84
2021/08/12 07:40:19;;;;;;;;;16.00;13.00;;;;;21.17;60.98;101555.03;5057001;28;45720;-87
2021/08/12 07:42:45;;;;;;;;;17.00;13.67;;;;;21.23;60.47;101558.53;5059326;28;45362;-87
2021/08/12 07:45:10;;;;;;;;;14.33;14.00;;;;;21.23;61.05;101555.88;5058108;28;45472;-88
2021/08/12 07:47:36;;;;;;;;;17.00;14.67;;;;;21.26;61.29;101558.47;5057647;28;45334;-85
2021/08/12 07:50:08;;;;;;;;;16.33;13.67;;;;;21.25;60.52;101551.38;5058307;28;45437;-86
2021/08/12 07:52:36;;;;;;;;;17.67;14.00;;;;;21.27;60.44;101549.56;5058077;28;45312;-87
2021/08/12 07:55:02;;;;;;;;;16.67;15.00;;;;;21.34;60.63;101553.91;5057663;28;46182;-88
2021/08/12 07:57:27;;;;;;;;;13.00;12.00;;;;;21.38;61.02;101550.28;5056153;28;45398;-85
2021/08/12 07:59:53;;;;;;;;;18.67;15.67;;;;;21.48;60.44;101558.16;5057812;28;45279;-84
2021/08/12 08:02:18;;;;;;;;;18.67;12.00;;;;;21.50;60.89;101551.00;5059823;28;45466;-84
2021/08/12 08:04:43;;;;;;;;;18.33;16.33;;;;;21.59;60.14;101561.56;5059886;28;45803;-85
2021/08/12 08:07:09;;;;;;;;;14.00;14.00;;;;;21.66;59.96;101538.25;5061651;28;45418;-85
2021/08/12 08:09:34;;;;;;;;;17.00;16.00;;;;;21.69;60.59;101540.00;5068299;28;45391;-83
2021/08/12 08:11:59;;;;;;;;;13.67;13.67;;;;;21.80;60.83;101547.84;5066962;28;45339;-84
2021/08/12 08:14:25;;;;;;;;;12.33;12.00;;;;;21.86;59.85;101562.06;5066081;28;45367;-87
2021/08/12 08:16:50;;;;;;;;;14.00;12.33;;;;;21.91;59.20;101548.59;5058457;28;45326;-88
2021/08/12 08:19:15;;;;;;;;;17.33;14.00;;;;;21.94;60.28;101547.66;5058031;28;45330;-86
2021/08/12 08:21:41;;;;;;;;;14.00;13.00;;;;;22.06;60.21;101543.91;5057689;28;45285;-86
2021/08/12 08:24:07;;;;;;;;;18.00;14.33;;;;;22.14;59.48;101554.44;5057237;28;45493;-88
2021/08/12 08:26:32;;;;;;;;;16.67;12.33;;;;;22.17;59.44;101549.91;5056826;28;45444;-89
2021/08/12 08:28:58;;;;;;;;;20.33;14.00;;;;;22.26;59.20;101559.56;5056897;28;45341;-88
2021/08/12 08:31:23;;;;;;;;;17.33;14.00;;;;;22.29;59.28;101546.13;5057548;28;45411;-88
2021/08/12 08:33:48;;;;;;;;;17.33;13.33;;;;;22.35;59.72;101544.25;5056221;28;47042;-89
2021/08/12 08:36:14;;;;;;;;;13.33;13.33;;;;;22.42;59.66;101536.06;5058083;28;45379;-87
2021/08/12 08:38:39;;;;;;;;;13.67;13.00;;;;;22.55;58.40;101546.53;5057538;28;45456;-86
2021/08/12 08:41:07;;;;;;;;;18.67;16.67;;;;;22.58;58.43;101534.88;5057251;28;45368;-87
2021/08/12 08:43:34;;;;;;;;;13.33;12.33;;;;;22.78;58.60;101539.88;5056787;28;46315;-88
2021/08/12 08:46:02;;;;;;;;;17.00;15.67;;;;;22.90;58.44;101539.59;5056530;28;45359;-86
2021/08/12 08:48:31;;;;;;;;;17.33;13.33;;;;;23.13;57.80;101543.56;5057456;28;45248;-88
2021/08/12 08:50:58;;;;;;;;;12.33;12.00;;;;;23.36;58.38;101554.66;5057704;28;45386;-86
2021/08/12 08:53:25;;;;;;;;;15.67;13.00;;;;;23.64;57.86;101558.53;5057407;28;45753;-85
2021/08/12 08:55:51;;;;;;;;;14.00;12.00;;;;;23.85;58.22;101545.47;5056744;28;45271;-84
2021/08/12 08:58:18;;;;;;;;;13.00;13.00;;;;;24.18;57.14;101556.25;5056807;28;45409;-83
2021/08/12 09:00:44;;;;;;;;;14.67;13.67;;;;;24.40;56.43;101548.53;5057317;28;45312;-84
2021/08/12 09:03:09;;;;;;;;;14.00;14.00;;;;;24.69;55.96;101563.84;5056343;28;46126;-85
2021/08/12 09:05:35;;;;;;;;;14.33;12.00;;;;;24.91;55.14;101563.22;5056757;28;45318;-86
2021/08/12 09:08:01;;;;;;;;;15.33;15.33;;;;;25.18;55.10;101564.22;5056848;28;45427;-84
2021/08/12 09:10:26;;;;;;;;;12.33;12.00;;;;;25.43;54.51;101557.16;5056623;28;45353;-86
2021/08/12 09:12:52;;;;;;;;;14.00;12.67;;;;;25.65;53.40;101564.53;5056486;28;46291;-86
2021/08/12 09:15:23;;;;;;;;;14.33;13.00;;;;;25.87;53.93;101562.03;5056605;28;45468;-86
2021/08/12 09:17:51;;;;;;;;;14.00;13.00;;;;;26.14;53.68;101577.28;5056437;28;45239;-88
2021/08/12 09:20:25;;;;;;;;;18.00;13.00;;;;;26.41;52.78;101568.31;5056799;28;45415;-85
2021/08/12 09:23:04;;;;;;;;;13.67;11.67;;;;;26.66;52.67;101568.28;5056362;28;45502;-83
2021/08/12 09:25:31;;;;;;;;;15.67;13.33;;;;;26.92;51.87;101569.09;5056346;28;45338;-85
2021/08/12 09:28:15;;;;;;;;;15.67;13.00;;;;;27.17;50.75;101565.47;5056223;28;45335;-85
2021/08/12 09:30:44;;;;;;;;;14.67;13.00;;;;;27.40;50.32;101557.38;5056672;28;45335;-86
2021/08/12 09:33:18;;;;;;;;;11.00;11.00;;;;;27.64;50.15;101558.16;5056187;28;46473;-83
2021/08/12 09:35:45;;;;;;;;;10.33;10.33;;;;;27.92;49.89;101566.09;5056492;28;45226;-87
2021/08/12 09:38:14;;;;;;;;;14.67;12.33;;;;;28.19;49.39;101565.81;5056204;28;45418;-84
2021/08/12 09:40:40;;;;;;;;;15.00;14.00;;;;;28.41;48.92;101559.47;5056577;28;45370;-84
2021/08/12 09:43:07;;;;;;;;;12.67;12.33;;;;;28.61;48.79;101561.28;5059230;28;45442;-85
2021/08/12 09:45:35;;;;;;;;;13.00;10.33;;;;;28.86;48.61;101553.81;5059827;28;45882;-85
2021/08/12 09:48:14;;;;;;;;;13.00;11.67;;;;;29.06;47.07;101562.84;5059585;28;45401;-84
2021/08/12 09:50:42;;;;;;;;;17.33;13.33;;;;;29.19;46.95;101553.16;5058832;28;45353;-87
2021/08/12 09:53:15;;;;;;;;;14.00;12.00;;;;;29.41;46.71;101565.66;5059653;28;46387;-88
2021/08/12 09:55:41;;;;;;;;;14.67;14.67;;;;;29.56;45.61;101557.72;5058000;28;45320;-87
2021/08/12 09:58:07;;;;;;;;;12.33;11.33;;;;;29.70;45.19;101557.91;5059264;28;45434;-87
2021/08/12 10:00:42;;;;;;;;;14.00;12.33;;;;;29.89;45.35;101554.25;5059626;28;45288;-86
2021/08/12 10:03:46;;;;;;;;;13.67;12.00;;;;;30.09;45.48;101557.78;5059749;28;46390;-87
2021/08/12 10:06:20;;;;;;;;;14.00;11.67;;;;;30.26;44.73;101556.00;5016932;28;45403;-87
2021/08/12 10:08:46;;;;;;;;;14.00;11.67;;;;;30.44;44.48;101547.88;5017363;28;45333;-83
2021/08/12 10:11:28;;;;;;;;;15.00;11.00;;;;;30.60;44.49;101550.59;5017181;28;45277;-84
2021/08/12 10:14:05;;;;;;;;;15.67;12.00;;;;;30.79;42.38;101555.00;5016994;28;45446;-85
2021/08/12 10:16:33;;;;;;;;;17.67;13.33;;;;;30.92;42.64;101552.50;5016640;28;45337;-84
2021/08/12 10:19:00;;;;;;;;;12.33;11.67;;;;;31.03;41.50;101544.59;5017697;28;45411;-87
2021/08/12 10:21:27;;;;;;;;;17.33;13.00;;;;;31.19;42.28;101546.47;5018698;28;45386;-85
2021/08/12 10:23:57;;;;;;;;;17.00;12.00;;;;;31.31;41.93;101543.03;5021800;28;45441;-83
2021/08/12 10:26:28;;;;;;;;;12.67;11.33;;;;;31.47;42.14;101538.56;5020070;28;45352;-85
2021/08/12 10:28:59;;;;;;;;;12.67;11.33;;;;;31.54;41.35;101532.66;5021990;28;45508;-86
2021/08/12 10:31:28;;;;;;;;;11.00;10.00;;;;;31.75;41.33;101540.50;5020849;28;45269;-87
2021/08/12 10:33:56;;;;;;;;;11.00;10.00;;;;;31.87;41.15;101536.19;5019713;28;45706;-87
2021/08/12 10:36:22;;;;;;;;;14.67;12.00;;;;;31.97;40.78;101533.75;5029922;28;45391;-85
2021/08/12 10:38:48;;;;;;;;;10.67;8.67;;;;;32.01;41.17;101540.75;5060364;28;45307;-84
2021/08/12 10:41:16;;;;;;;;;12.00;11.00;;;;;32.15;40.33;101540.91;5062551;28;45370;-88
2021/08/12 10:43:43;;;;;;;;;13.00;10.33;;;;;32.17;39.98;101534.41;5059487;28;46057;-85
2021/08/12 10:46:09;;;;;;;;;13.67;12.33;;;;;32.27;39.07;101539.25;5060460;28;45504;-84
2021/08/12 10:48:34;;;;;;;;;14.00;11.33;;;;;32.33;39.69;101544.31;5058702;28;46017;-86
2021/08/12 10:51:13;;;;;;;;;11.00;11.00;;;;;32.42;39.41;101541.03;5059745;28;45405;-83
2021/08/12 10:53:44;;;;;;;;;16.33;11.67;;;;;32.51;39.80;101538.69;5059173;28;46169;-85
2021/08/12 10:56:18;;;;;;;;;10.00;10.00;;;;;32.58;39.18;101538.19;5060010;28;45354;-85
2021/08/12 10:58:50;;;;;;;;;11.33;11.33;;;;;32.68;39.92;101538.50;5058932;28;45386;-84
2021/08/12 11:01:31;;;;;;;;;11.33;9.33;;;;;32.81;39.08;101537.69;5059195;28;45308;-84
2021/08/12 11:04:01;;;;;;;;;9.00;9.00;;;;;32.88;39.82;101539.03;5058463;28;45369;-84
2021/08/12 11:06:41;;;;;;;;;11.67;11.00;;;;;32.92;38.87;101537.88;5058438;28;45348;-83
2021/08/12 11:09:08;;;;;;;;;14.00;12.00;;;;;32.91;38.60;101536.09;5058716;28;45461;-86
2021/08/12 11:11:33;;;;;;;;;8.00;7.67;;;;;32.95;39.30;101533.19;5058358;28;45441;-86